EGEC - Campbeltown
Distance from station: E 5mi, 14km
Updated: 06/20/2018 9:20am
NOT Current
Few Clouds
Few Clouds
 Wind from WNW
Wind: WNW 14 mph , 22 km/h
Temperature: 54°F , 12°C
Dew Point: 46°F , 8°C
Humidity: 77%
Barometer: 30.12 inHg , 1020 hPa
Clouds: Few Clouds
Visibility: 6 miles , 10 km
Cloud details: Few Clouds 2500 ft
2018/06/20 16:20 EGEC 201620Z 29012KT 9999 FEW025 12/08 Q1020